Historyczne dane pomiarowe

Dodano dane terminowe – wersja testowa.

Dane z okresu 1951-2019

Wersja bazy: 1.34 [2019-03-16, lista zmian], aktualizacja planowana na 2019-04-15

Dane meteo z obszaru Polski uzyskane na podstawie danych udostępnionych przez Instytut Meteorologii i Gospodarki Wodnej – Państwowy Instytut Badawczy.

 

Wybierz Datę:    

       

TemperaturaWilgotnośćZachmurzenieWiatrCiśnienieWidzialnośćZjawiska
 Data    tng td wb rh cc ccl cl cm ch dir g1 g2 mslp ppp      
1994-07-21 00:00:00 9.0--- 7.8 8.492wxwx0wx--1020.2 978.7 0.0---wx
1994-07-21 01:00:00 8.6--- 7.4 8.092wxwx0wx--1020.4 978.8----wx
1994-07-21 02:00:00 7.6--- 6.8 7.295wxwx0wx--1020.5 978.8----wx
1994-07-21 03:00:00 6.8--- 6.4 6.697wxwx0wx--1020.8 978.9----wx
1994-07-21 04:00:00 6.8--- 6.4 6.697wxwx0wx--1020.9 979.0----wx
1994-07-21 05:00:00 9.3--- 8.3 8.894wxwx0wx--1020.6 979.1----wx
1994-07-21 06:00:00 12.9--- 10.0 11.383wxwx1wx--1020.2 979.2 0.0---wx
1994-07-21 07:00:00 17.6--- 11.6 14.168wxwx0wx--1019.5 979.2----wx
1994-07-21 08:00:00 21.9--- 11.5 15.752wxwxwx0wx--1019.0 979.3----wx
1994-07-21 09:00:00 22.8--- 9.5 15.143wxwx1wx--1018.9 979.3----wx
1994-07-21 10:00:00 23.8--- 9.5 15.540wxwx2wx--1018.7 979.3----wx
1994-07-21 11:00:00 24.5--- 8.9 15.537wxwx1wx--1018.3 979.0----wx
1994-07-21 12:00:00 25.9--- 13.0 17.945wxwx2wx--1017.8 978.7 0.0---wx
1994-07-21 13:00:00 26.2--- 9.0 16.234wxwxwx2wx--1017.5 978.4----wx
1994-07-21 14:00:00 26.5--- 8.5 16.132wxwxwx3wx--1017.2 978.2----wx
1994-07-21 15:00:00 26.8--- 8.7 16.332wxwxwx1wx--1017.0 978.0----wx
1994-07-21 16:00:00 26.5--- 8.0 15.931wxwxwx1wx--1016.8 977.8----wx
1994-07-21 17:00:00 24.9--- 11.2 16.742wxwx0wx--1017.0 977.8----wx
1994-07-21 18:00:00 23.9--- 9.4 15.540wxwx1wx--1017.2 977.8 0.0---wx
1994-07-21 19:00:00 20.1--- 8.7 13.748wxwx0wx--1018.2 978.3----wx
1994-07-21 20:00:00 16.7--- 11.7 13.872wxwx0wx--1019.2 978.8----wx
1994-07-21 21:00:00 14.9--- 11.2 12.879wxwx0wx--1019.7 979.0----wx
1994-07-21 22:00:00 13.4--- 10.4 11.782wxwx0wx--1020.2 979.3----wx
1994-07-21 23:00:00 12.9--- 10.0 11.383wxwx0wx--1020.5 979.5----wx

 

Źródłem pochodzenia danych jest Instytut Meteorologii i Gospodarki Wodnej – Państwowy Instytut Badawczy. Dane Instytutu Meteorologii i Gospodarki Wodnej – Państwowego Instytutu Badawczego zostały przetworzone.

Dane źródłowe można odnaleźć na stronie https://dane.imgw.pl